Akita Airport

Airport
ICAO code: 
RJSK
IATA Code: 
AXT
Summary
ICAO Region: 
APAC
Territory: 
Location: 
Akita, Akita Prefecture
Serving: 
Akita
Elevation: 
305 ft
Coordinates: 
Aerial View: 
39° 36' 55.149" N, 140° 13' 4.973" E
Metar
Observation
RJSK 280500Z 30005KT 260V330 9999 FEW030 SCT040 08/01 Q1029
Station
Akita Airport
Date/Time
2021-11-28 05:00:00
Wind direction
300°
Wind speed
05 kts
Lowest cloud amount
few clouds
Temperature
8°C
Dew point
1°C
Humidity
61%
QNH
1029 hPa
Weather condition
n/a

Akita Airport is an airport located 14 km southeast of Akita, a city in the Akita Prefecture of Japan.

Climatology

Humid subtropical climate (Köppen climate classification Cfa).

Runways

Designator Length Width Surface Rops
10/28 2499 61 ASP Yes/Yes
Airport map: 
Aerial View: 

Accidents and Serious Incidents at or in the vicinity of RJSK

SKYbrary Partners:

Safety knowledge contributed by: